Time;durP1;ratioP1;P1;durP2;ratioP2;P2;SDS_P1;SDS_P2;PMS_P1;PMS_P2;Temp;Humidity;BMP_temperature;BMP_pressure;BME280_temperature;BME280_humidity;BME280_pressure;Samples;Min_cycle;Max_cycle;Signal;HPM_P1;HPM_P2
2021/03/04 00:00:27;;;;;;;27.70;15.02;;;;;;;4.53;71.85;98807.59;4916084;29;20091;-75
2021/03/04 00:02:53;;;;;;;25.38;14.05;;;;;;;4.44;72.47;98796.31;4915811;29;20027;-75
2021/03/04 00:05:18;;;;;;;27.23;14.43;;;;;;;4.43;72.69;98810.06;4916412;29;20438;-75
2021/03/04 00:07:44;;;;;;;;;;;;;;;4.46;72.63;98810.41;4917192;29;20036;-78
2021/03/04 00:10:14;;;;;;;23.25;13.13;;;;;;;4.57;72.33;98808.78;4917024;29;19922;-78
2021/03/04 00:12:41;;;;;;;23.38;13.85;;;;;;;4.36;72.96;98806.63;4921399;29;20028;-77
2021/03/04 00:15:08;;;;;;;22.90;12.75;;;;;;;4.34;72.96;98798.75;4914777;29;20051;-78
2021/03/04 00:17:34;;;;;;;23.38;13.23;;;;;;;4.24;73.73;98804.75;4910165;29;20127;-79
2021/03/04 00:20:00;;;;;;;25.70;13.75;;;;;;;4.35;73.35;98799.59;4899152;29;20153;-76
2021/03/04 00:22:26;;;;;;;;;;;;;;;4.37;73.21;98802.88;4907829;29;20535;-77
2021/03/04 00:24:51;;;;;;;26.35;13.52;;;;;;;4.32;73.60;98796.28;4919258;29;19908;-77
2021/03/04 00:27:16;;;;;;;23.10;13.65;;;;;;;4.39;73.15;98798.88;4915406;29;20039;-76
2021/03/04 00:29:42;;;;;;;;;;;;;;;4.39;73.37;98795.34;4916060;29;20028;-78
2021/03/04 00:32:07;;;;;;;28.75;14.02;;;;;;;4.33;73.52;98781.69;4904665;29;19980;-80
2021/03/04 00:34:33;;;;;;;23.35;12.68;;;;;;;4.17;74.09;98795.09;4895201;29;20036;-79
2021/03/04 00:36:59;;;;;;;22.83;13.50;;;;;;;4.17;73.82;98785.09;4896025;29;20029;-78
2021/03/04 00:39:24;;;;;;;25.27;13.93;;;;;;;4.26;73.88;98778.25;4896000;29;20100;-77
2021/03/04 00:41:50;;;;;;;23.02;12.55;;;;;;;4.30;73.66;98781.31;4896119;29;20032;-78
2021/03/04 00:44:15;;;;;;;24.05;13.77;;;;;;;4.16;74.12;98777.22;4896371;29;20009;-78
2021/03/04 00:46:41;;;;;;;23.88;13.90;;;;;;;4.19;73.99;98774.88;4896079;29;20043;-80
2021/03/04 00:49:06;;;;;;;;;;;;;;;4.13;74.41;98770.38;4896966;29;20032;-76
2021/03/04 00:51:31;;;;;;;22.83;13.40;;;;;;;3.92;75.14;98760.09;4903375;29;19969;-78
2021/03/04 00:53:57;;;;;;;;;;;;;;;3.91;75.24;98765.75;4915013;29;20025;-79
2021/03/04 00:56:22;;;;;;;23.20;12.63;;;;;;;3.89;75.24;98751.63;4913391;29;19922;-79
2021/03/04 00:58:48;;;;;;;;;;;;;;;3.93;75.28;98748.22;4914943;29;20024;-76
2021/03/04 01:01:15;;;;;;;24.08;12.48;;;;;;;3.82;75.74;98740.94;4916499;29;19926;-76
2021/03/04 01:03:40;;;;;;;24.13;13.95;;;;;;;3.89;75.70;98748.91;4915711;29;20052;-74
2021/03/04 01:06:06;;;;;;;25.13;13.40;;;;;;;3.84;75.90;98752.34;4918180;29;20036;-75
2021/03/04 01:08:31;;;;;;;;;;;;;;;3.86;75.97;98750.19;4919052;29;20028;-75
2021/03/04 01:10:58;;;;;;;30.75;13.60;;;;;;;3.88;76.03;98745.41;4919964;29;19922;-74
2021/03/04 01:13:23;;;;;;;29.00;13.40;;;;;;;3.79;76.29;98744.06;4915249;29;20071;-75
2021/03/04 01:15:49;;;;;;;26.88;13.60;;;;;;;3.81;76.15;98733.84;4904430;29;20068;-74
2021/03/04 01:18:15;;;;;;;20.63;12.95;;;;;;;3.85;76.26;98734.22;4913375;29;20024;-74
2021/03/04 01:20:40;;;;;;;;;;;;;;;3.73;76.55;98732.31;4913591;29;20079;-74
2021/03/04 01:23:06;;;;;;;28.20;13.32;;;;;;;3.84;76.28;98733.38;4913310;29;20423;-74
2021/03/04 01:25:31;;;;;;;;;;;;;;;3.84;76.19;98729.84;4916616;29;20036;-74
2021/03/04 01:27:56;;;;;;;27.75;13.75;;;;;;;3.91;75.98;98719.75;4916678;29;20428;-75
2021/03/04 01:30:24;;;;;;;;;;;;;;;3.86;75.65;98715.03;4917310;29;20032;-75
2021/03/04 01:32:49;;;;;;;24.48;13.45;;;;;;;3.83;76.50;98717.38;4918350;29;19915;-75
2021/03/04 01:35:15;;;;;;;24.75;14.00;;;;;;;3.64;76.66;98722.03;4917437;29;20047;-75
2021/03/04 01:37:41;;;;;;;27.75;14.80;;;;;;;3.45;77.43;98709.66;4918607;29;20148;-74
2021/03/04 01:40:15;;;;;;;25.15;15.70;;;;;;;3.51;77.52;98717.66;4918793;29;20491;-75
2021/03/04 01:42:41;;;;;;;25.75;14.93;;;;;;;3.44;78.08;98711.56;4917658;29;20070;-76
2021/03/04 01:45:08;;;;;;;26.48;14.50;;;;;;;3.34;78.53;98703.16;4919412;29;20069;-79
2021/03/04 01:47:35;;;;;;;26.75;14.52;;;;;;;3.18;79.42;98712.75;4919980;29;20187;-81
2021/03/04 01:50:05;;;;;;;27.58;14.70;;;;;;;3.27;79.01;98704.31;4920147;29;20028;-78
2021/03/04 01:52:30;;;;;;;27.17;16.67;;;;;;;3.30;78.89;98706.56;4917871;29;20036;-77
2021/03/04 01:54:56;;;;;;;27.77;13.77;;;;;;;3.33;78.82;98697.97;4917837;29;20032;-78
2021/03/04 01:57:21;;;;;;;34.67;16.52;;;;;;;3.38;78.54;98698.13;4918351;29;20039;-79
2021/03/04 01:59:47;;;;;;;;;;;;;;;3.39;78.64;98691.66;4918489;29;20040;-81
2021/03/04 02:02:13;;;;;;;28.65;14.52;;;;;;;3.47;78.06;98684.06;4917924;29;19919;-80
2021/03/04 02:04:38;;;;;;;22.77;13.23;;;;;;;3.41;78.37;98678.75;4917654;29;20045;-76
2021/03/04 02:07:36;;;;;;;28.42;15.43;;;;;;;3.47;78.16;98683.22;4914920;29;20055;-77
2021/03/04 02:10:16;;;;;;;29.77;13.95;;;;;;;3.43;78.58;98682.03;4926462;29;20032;-79
2021/03/04 02:12:57;;;;;;;29.30;17.00;;;;;;;3.42;78.57;98681.19;4900598;29;20477;-77
2021/03/04 02:15:27;;;;;;;24.60;14.32;;;;;;;3.44;78.45;98676.41;4902442;29;20044;-77
2021/03/04 02:17:58;;;;;;;28.10;16.10;;;;;;;3.47;78.40;98673.25;4886158;29;20405;-76
2021/03/04 02:20:49;;;;;;;20.67;15.05;;;;;;;3.47;78.14;98667.81;4907114;29;20035;-75
2021/03/04 02:23:36;;;;;;;24.48;14.20;;;;;;;3.53;77.98;98664.19;4879552;29;20044;-76
2021/03/04 02:26:32;;;;;;;25.50;13.25;;;;;;;3.46;78.45;98659.94;4900801;29;21075;-76
2021/03/04 02:28:58;;;;;;;28.90;16.08;;;;;;;3.34;79.09;98653.69;4919444;29;20040;-77
2021/03/04 02:31:29;;;;;;;22.45;13.15;;;;;;;3.52;78.63;98646.31;4919570;29;20036;-78
2021/03/04 02:33:55;;;;;;;27.73;13.82;;;;;;;3.39;78.42;98651.09;4917326;29;20059;-77
2021/03/04 02:36:22;;;;;;;30.98;15.68;;;;;;;3.39;78.56;98642.97;4914558;29;20164;-77
2021/03/04 02:38:48;;;;;;;25.65;12.60;;;;;;;3.24;78.72;98641.56;4881077;29;20029;-78
2021/03/04 02:41:13;;;;;;;23.08;13.32;;;;;;;3.27;78.90;98642.97;4897941;29;20021;-76
2021/03/04 02:43:40;;;;;;;;;;;;;;;3.25;78.88;98650.50;4881623;29;20032;-75
2021/03/04 02:46:09;;;;;;;25.90;12.80;;;;;;;3.30;78.82;98649.78;4898311;29;19919;-78
2021/03/04 02:48:35;;;;;;;20.25;11.85;;;;;;;3.22;78.58;98638.28;4898209;29;20286;-78
2021/03/04 02:51:00;;;;;;;27.85;12.50;;;;;;;2.97;80.09;98634.06;4881002;29;20025;-77
2021/03/04 02:53:27;;;;;;;23.10;13.93;;;;;;;2.88;80.45;98625.44;4881159;29;20029;-79
2021/03/04 02:55:53;;;;;;;24.45;13.35;;;;;;;3.06;79.84;98627.28;4881296;29;20036;-78
2021/03/04 02:58:19;;;;;;;28.70;15.65;;;;;;;2.92;80.46;98631.22;4898077;29;20037;-77
2021/03/04 03:00:47;;;;;;;28.60;14.43;;;;;;;2.97;80.49;98632.22;4908132;29;20397;-77
2021/03/04 03:03:14;;;;;;;26.73;14.13;;;;;;;3.03;80.21;98628.59;4897683;29;20045;-80
2021/03/04 03:05:44;;;;;;;22.05;12.70;;;;;;;3.06;80.34;98621.88;4907753;29;20028;-76
2021/03/04 03:08:14;;;;;;;25.45;14.13;;;;;;;3.07;80.48;98618.94;4899612;29;20051;-76
2021/03/04 03:10:40;;;;;;;29.15;13.52;;;;;;;3.02;80.52;98620.69;4916047;29;20008;-76
2021/03/04 03:13:09;;;;;;;23.48;15.07;;;;;;;2.90;81.00;98609.03;4916154;29;20050;-76
2021/03/04 03:15:34;;;;;;;27.48;13.73;;;;;;;2.89;80.82;98596.56;4915828;29;20052;-78
2021/03/04 03:17:59;;;;;;;20.00;13.23;;;;;;;3.05;80.76;98622.94;4904657;29;20040;-76
2021/03/04 03:20:25;;;;;;;25.73;14.88;;;;;;;2.97;80.92;98613.28;4899143;29;20033;-78
2021/03/04 03:22:51;;;;;;;;;;;;;;;3.03;80.78;98617.78;4899614;29;20037;-75
2021/03/04 03:25:17;;;;;;;27.00;14.80;;;;;;;3.01;80.59;98609.06;4901222;29;20269;-76
2021/03/04 03:27:45;;;;;;;29.58;15.43;;;;;;;3.02;80.51;98605.31;4900903;29;20060;-75
2021/03/04 03:30:11;;;;;;;25.52;13.40;;;;;;;3.03;80.69;98612.38;4880388;29;20099;-74
2021/03/04 03:32:41;;;;;;;25.42;14.50;;;;;;;2.83;80.96;98600.19;4896841;29;20087;-75
2021/03/04 03:35:09;;;;;;;23.02;12.63;;;;;;;2.81;81.30;98611.25;4879812;29;20037;-74
2021/03/04 03:37:35;;;;;;;30.15;15.38;;;;;;;2.93;80.66;98613.97;4880283;29;20474;-74
2021/03/04 03:40:01;;;;;;;27.67;14.48;;;;;;;2.83;81.13;98611.00;4910190;29;20126;-75
2021/03/04 03:42:26;;;;;;;22.58;14.80;;;;;;;2.90;80.69;98611.72;4915348;29;20028;-74
2021/03/04 03:44:55;;;;;;;23.38;14.23;;;;;;;2.90;80.52;98606.31;4890639;29;20038;-76
2021/03/04 03:47:21;;;;;;;22.70;13.02;;;;;;;2.80;81.16;98611.44;4909506;29;20036;-75
2021/03/04 03:49:48;;;;;;;27.50;15.15;;;;;;;2.66;81.64;98600.03;4915395;29;20035;-75
2021/03/04 03:52:14;;;;;;;23.85;14.55;;;;;;;2.77;81.07;98604.63;4889630;29;20036;-74
2021/03/04 03:54:39;;;;;;;28.73;16.35;;;;;;;2.67;81.49;98601.66;4879686;29;20042;-75
2021/03/04 03:57:05;;;;;;;24.48;15.05;;;;;;;2.55;81.73;98593.50;4903446;29;20497;-75
2021/03/04 03:59:32;;;;;;;;;;;;;;;2.74;81.62;98601.56;4915686;29;20088;-74
2021/03/04 04:01:58;;;;;;;29.60;15.45;;;;;;;2.46;82.00;98594.06;4900992;29;19922;-74
2021/03/04 04:04:24;;;;;;;24.33;13.68;;;;;;;2.35;82.74;98598.34;4922617;29;20135;-80
2021/03/04 04:06:50;;;;;;;29.17;15.45;;;;;;;2.32;83.02;98585.28;4923973;29;20510;-76
2021/03/04 04:09:19;;;;;;;26.55;13.43;;;;;;;2.21;82.99;98579.84;4905612;29;20059;-74
2021/03/04 04:11:44;;;;;;;23.80;13.27;;;;;;;2.31;82.92;98580.13;4903316;29;20473;-75
2021/03/04 04:14:10;;;;;;;26.67;15.05;;;;;;;2.40;82.78;98584.16;4899750;29;20039;-75
2021/03/04 04:16:35;;;;;;;;;;;;;;;2.42;82.42;98588.28;4898995;29;20077;-75
2021/03/04 04:19:01;;;;;;;20.67;13.27;;;;;;;2.37;82.55;98588.16;4896714;29;20044;-76
2021/03/04 04:21:28;;;;;;;24.58;14.90;;;;;;;2.54;82.14;98585.63;4896123;29;20431;-75
2021/03/04 04:23:54;;;;;;;26.70;14.00;;;;;;;2.50;81.65;98579.06;4879157;29;20545;-77
2021/03/04 04:26:19;;;;;;;27.20;15.00;;;;;;;2.29;82.83;98583.06;4896526;29;20084;-75
2021/03/04 04:28:45;;;;;;;28.35;14.93;;;;;;;2.16;83.11;98562.44;4896049;29;20028;-73
2021/03/04 04:31:11;;;;;;;27.45;14.70;;;;;;;2.18;83.32;98575.72;4879222;29;20073;-75
2021/03/04 04:33:37;;;;;;;26.55;13.15;;;;;;;2.08;83.61;98565.47;4896036;29;20705;-74
2021/03/04 04:36:03;;;;;;;27.70;14.32;;;;;;;2.06;83.86;98567.59;4896318;29;20036;-74
2021/03/04 04:38:28;;;;;;;27.27;13.93;;;;;;;2.17;83.54;98569.50;4896502;29;20120;-75
2021/03/04 04:40:54;;;;;;;26.73;13.43;;;;;;;2.09;83.50;98559.03;4897650;29;20123;-75
2021/03/04 04:43:19;;;;;;;;;;;;;;;2.23;83.55;98559.69;4905805;29;20023;-75
2021/03/04 04:45:45;;;;;;;25.58;13.18;;;;;;;2.25;82.85;98544.09;4915022;29;19915;-75
2021/03/04 04:48:10;;;;;;;;;;;;;;;2.28;82.97;98559.00;4915352;29;20084;-74
2021/03/04 04:50:36;;;;;;;32.03;15.75;;;;;;;2.30;83.11;98556.91;4914969;29;19915;-75
2021/03/04 04:53:01;;;;;;;25.20;13.88;;;;;;;2.30;82.84;98546.94;4914947;29;20036;-74
2021/03/04 04:55:27;;;;;;;27.83;14.52;;;;;;;2.28;83.10;98540.13;4897942;29;20179;-75
2021/03/04 04:57:52;;;;;;;;;;;;;;;2.39;82.67;98548.25;4898864;29;20378;-74
2021/03/04 05:00:19;;;;;;;27.17;12.73;;;;;;;2.44;82.30;98543.00;4916948;29;19922;-74
2021/03/04 05:02:45;;;;;;;22.92;12.75;;;;;;;2.31;82.49;98531.56;4889185;29;20027;-75
2021/03/04 05:05:11;;;;;;;24.17;13.13;;;;;;;2.44;82.53;98542.19;4884104;29;20033;-76
2021/03/04 05:07:36;;;;;;;;;;;;;;;2.30;83.23;98541.53;4915231;29;20157;-76
2021/03/04 05:10:06;;;;;;;24.48;12.30;;;;;;;2.41;83.07;98537.25;4915263;29;19915;-75
2021/03/04 05:12:32;;;;;;;29.90;15.30;;;;;;;2.20;84.12;98525.06;4901708;29;20055;-75
2021/03/04 05:14:58;;;;;;;25.25;13.32;;;;;;;2.11;84.33;98527.25;4904051;29;20478;-75
2021/03/04 05:17:23;;;;;;;22.70;12.32;;;;;;;2.28;83.91;98530.16;4904296;29;20542;-75
2021/03/04 05:19:49;;;;;;;;;;;;;;;2.43;83.34;98532.44;4905607;29;20020;-75
2021/03/04 05:22:14;;;;;;;26.92;12.13;;;;;;;2.24;83.70;98530.81;4899603;29;20361;-75
2021/03/04 05:24:40;;;;;;;;;;;;;;;2.21;84.38;98531.28;4900068;29;20032;-75
2021/03/04 05:27:06;;;;;;;24.90;13.43;;;;;;;1.88;85.07;98518.22;4913906;29;19915;-74
2021/03/04 05:29:31;;;;;;;;;;;;;;;1.81;85.83;98529.09;4882992;29;20033;-74
2021/03/04 05:31:57;;;;;;;27.42;12.98;;;;;;;1.91;86.04;98529.34;4882375;29;19975;-76
2021/03/04 05:34:22;;;;;;;24.58;13.30;;;;;;;2.02;85.29;98509.72;4899270;29;20031;-74
2021/03/04 05:36:48;;;;;;;24.65;13.07;;;;;;;2.28;84.88;98532.03;4914988;29;20043;-75
2021/03/04 05:39:13;;;;;;;;;;;;;;;2.31;84.39;98524.28;4891955;29;20130;-76
2021/03/04 05:41:39;;;;;;;24.08;13.48;;;;;;;2.23;84.16;98518.38;4899478;29;19926;-77
2021/03/04 05:44:05;;;;;;;24.05;12.85;;;;;;;2.45;83.45;98519.50;4930363;29;20031;-75
2021/03/04 05:46:33;;;;;;;23.70;13.55;;;;;;;2.40;83.33;98522.91;4914159;29;20059;-74
2021/03/04 05:49:00;;;;;;;28.38;12.05;;;;;;;2.29;83.59;98522.88;4925281;29;20099;-80
2021/03/04 05:51:26;;;;;;;23.48;15.20;;;;;;;2.43;83.23;98524.34;4929592;29;20032;-76
2021/03/04 05:53:58;;;;;;;30.08;16.17;;;;;;;2.54;83.31;98531.63;4913300;29;20036;-77
2021/03/04 05:56:25;;;;;;;27.80;15.38;;;;;;;2.58;82.97;98530.13;4908631;29;20031;-81
2021/03/04 05:58:52;;;;;;;21.10;14.52;;;;;;;2.52;82.89;98528.34;4910350;29;20119;-76
2021/03/04 06:01:18;;;;;;;32.08;15.65;;;;;;;2.48;82.40;98529.84;4930164;29;20064;-89
2021/03/04 06:03:45;;;;;;;30.42;17.27;;;;;;;2.34;83.09;98534.63;4915976;29;20028;-83
2021/03/04 06:06:11;;;;;;;27.08;15.40;;;;;;;2.23;83.73;98530.00;4927260;29;20034;-84
2021/03/04 06:08:37;;;;;;;29.45;14.80;;;;;;;2.20;84.07;98529.63;4927896;29;20048;-79
2021/03/04 06:11:04;;;;;;;31.27;14.85;;;;;;;2.30;83.81;98524.50;4928431;29;20437;-77
2021/03/04 06:13:33;;;;;;;30.73;13.63;;;;;;;2.46;83.42;98527.41;4910139;29;20074;-78
2021/03/04 06:16:00;;;;;;;30.63;14.68;;;;;;;2.51;82.76;98532.09;4925332;29;20140;-78
2021/03/04 06:18:43;;;;;;;20.88;13.50;;;;;;;2.48;82.81;98530.69;4911646;29;20459;-83
2021/03/04 06:21:18;;;;;;;27.27;17.42;;;;;;;2.52;82.69;98531.06;4913119;29;20031;-86
2021/03/04 06:23:43;;;;;;;25.80;14.45;;;;;;;2.55;82.32;98522.50;4926390;29;20052;-78
2021/03/04 06:26:09;;;;;;;29.02;13.32;;;;;;;2.57;82.40;98525.78;4910149;29;20031;-77
2021/03/04 06:28:34;;;;;;;;;;;;;;;2.66;82.41;98533.31;4924051;29;20028;-80
2021/03/04 06:30:59;;;;;;;25.92;13.80;;;;;;;2.65;82.40;98522.75;4922252;29;20501;-86
2021/03/04 06:33:33;;;;;;;;;;;;;;;2.80;81.76;98530.44;4904625;29;20032;-85
2021/03/04 06:35:58;;;;;;;23.30;13.40;;;;;;;2.85;81.35;98517.88;4898064;29;19915;-88
2021/03/04 06:38:26;;;;;;;22.60;12.52;;;;;;;2.97;80.81;98518.72;4905963;29;20024;-87
2021/03/04 06:40:57;;;;;;;29.33;14.90;;;;;;;3.03;80.30;98517.81;4917156;29;20119;-83
2021/03/04 06:43:23;;;;;;;24.17;15.00;;;;;;;3.16;79.92;98522.97;4899420;29;20103;-80
2021/03/04 06:45:50;;;;;;;25.73;13.95;;;;;;;3.32;79.22;98526.06;4901263;29;20040;-76
2021/03/04 06:48:20;;;;;;;37.75;19.50;;;;;;;3.28;78.94;98523.00;4904206;29;20446;-74
2021/03/04 06:50:57;;;;;;;39.35;18.58;;;;;;;3.48;78.68;98526.16;4919147;29;20107;-85
2021/03/04 06:53:23;;;;;;;31.15;16.33;;;;;;;3.51;78.73;98517.56;4918906;29;20024;-89
2021/03/04 06:55:56;;;;;;;23.63;13.63;;;;;;;3.55;78.52;98516.03;4918009;29;20039;-83
2021/03/04 06:58:25;;;;;;;25.08;12.25;;;;;;;3.50;78.04;98513.22;4920279;29;20042;-85
2021/03/04 07:01:07;;;;;;;25.58;11.75;;;;;;;3.60;77.59;98516.13;4905578;29;20038;-88
2021/03/04 07:03:46;;;;;;;19.58;12.02;;;;;;;3.93;76.71;98510.09;4951517;29;20028;-89
2021/03/04 07:06:14;;;;;;;26.10;12.88;;;;;;;3.81;76.46;98495.78;4938800;29;20110;-90
2021/03/04 07:08:44;;;;;;;20.10;12.63;;;;;;;3.95;76.25;98510.66;4946962;28;20039;-86
2021/03/04 07:11:13;;;;;;;23.35;13.75;;;;;;;4.13;75.56;98497.00;4932702;29;20043;-87
2021/03/04 07:13:40;;;;;;;23.80;14.32;;;;;;;4.24;74.49;98498.81;4934209;29;20028;-84
2021/03/04 07:16:24;;;;;;;19.88;12.30;;;;;;;4.69;73.24;98498.03;4916330;29;20071;-88
2021/03/04 07:19:14;;;;;;;21.63;12.07;;;;;;;5.14;71.74;98498.78;4913991;29;20510;-92
2021/03/04 07:21:45;;;;;;;25.08;13.10;;;;;;;5.54;70.35;98500.50;4894008;29;20540;-87
2021/03/04 07:24:11;;;;;;;19.25;12.88;;;;;;;6.13;68.23;98507.00;4926149;29;20032;-91
2021/03/04 07:26:37;;;;;;;22.00;11.35;;;;;;;6.10;67.69;98502.91;4915493;29;20035;-84
2021/03/04 07:29:05;;;;;;;23.75;12.15;;;;;;;6.21;67.15;98504.66;4901899;29;20721;-82
2021/03/04 07:31:32;;;;;;;23.25;12.20;;;;;;;6.30;67.18;98497.69;4907566;29;20047;-85
2021/03/04 07:33:59;;;;;;;21.05;12.48;;;;;;;6.17;67.12;98497.28;4906071;29;20027;-79
2021/03/04 07:36:25;;;;;;;22.48;11.32;;;;;;;6.38;66.55;98507.31;4904707;29;20051;-75
2021/03/04 07:38:57;;;;;;;25.88;12.57;;;;;;;6.33;66.46;98499.91;4926907;29;20116;-85
2021/03/04 07:41:40;;;;;;;30.35;12.23;;;;;;;6.56;65.86;98497.97;4929675;29;20035;-87
2021/03/04 07:44:07;;;;;;;21.52;11.20;;;;;;;6.45;65.16;98497.88;4927484;29;20023;-91
2021/03/04 07:46:51;;;;;;;23.35;13.38;;;;;;;6.81;64.18;98495.50;4911188;29;20495;-87
2021/03/04 07:49:16;;;;;;;20.15;12.38;;;;;;;6.97;64.13;98505.44;4940156;29;20038;-86
2021/03/04 07:51:48;;;;;;;24.08;12.43;;;;;;;7.04;63.52;98495.19;4942766;29;20031;-89
2021/03/04 07:54:15;;;;;;;18.73;10.90;;;;;;;7.34;62.92;98495.41;4922032;29;20035;-89
2021/03/04 07:56:41;;;;;;;22.55;13.90;;;;;;;7.73;61.78;98487.78;4937361;29;20047;-86
2021/03/04 07:59:09;;;;;;;19.00;12.25;;;;;;;7.89;60.77;98480.53;4937298;29;20059;-83
2021/03/04 08:01:36;;;;;;;20.60;12.80;;;;;;;8.08;60.41;98484.44;4940525;29;20019;-91
2021/03/04 08:04:01;;;;;;;22.27;11.70;;;;;;;8.82;57.55;98475.91;4938527;29;20027;-86
2021/03/04 08:06:27;;;;;;;18.95;10.88;;;;;;;8.65;58.07;98488.97;4928744;29;20049;-87
2021/03/04 08:08:52;;;;;;;19.70;9.75;;;;;;;9.24;56.27;98476.47;4923267;29;20024;-89
2021/03/04 08:11:29;;;;;;;22.58;12.00;;;;;;;9.87;54.66;98477.72;4922659;29;20115;-85
2021/03/04 08:13:55;;;;;;;26.92;12.60;;;;;;;10.90;51.86;98472.31;4926466;29;20020;-90
2021/03/04 08:16:21;;;;;;;37.00;13.40;;;;;;;11.76;48.33;98477.91;4914282;29;20508;-86
2021/03/04 08:18:57;;;;;;;20.77;13.13;;;;;;;12.58;46.58;98475.81;4923146;29;20039;-82
2021/03/04 08:21:23;;;;;;;18.67;11.75;;;;;;;13.55;44.31;98467.72;4919228;29;20031;-83
2021/03/04 08:23:49;;;;;;;22.75;12.82;;;;;;;12.96;44.59;98471.16;4921538;29;20477;-81
2021/03/04 08:26:22;;;;;;;18.48;11.88;;;;;;;12.92;44.77;98469.28;4928039;29;20016;-80
2021/03/04 08:28:49;;;;;;;30.85;14.25;;;;;;;13.03;44.61;98462.53;4934562;29;20032;-85
2021/03/04 08:31:14;;;;;;;22.20;12.43;;;;;;;13.87;42.73;98453.94;4925088;29;20504;-83
2021/03/04 08:33:40;;;;;;;20.27;12.20;;;;;;;13.11;44.40;98459.13;4919736;29;20104;-83
2021/03/04 08:36:08;;;;;;;30.58;14.50;;;;;;;13.02;44.10;98458.97;4925271;29;20068;-81
2021/03/04 08:38:42;;;;;;;23.38;14.55;;;;;;;12.98;44.16;98438.69;4928854;29;20477;-89
2021/03/04 08:41:08;;;;;;;22.83;13.32;;;;;;;12.64;45.74;98444.44;4923012;29;20035;-87
2021/03/04 08:43:33;;;;;;;21.10;13.23;;;;;;;12.89;45.10;98443.25;4921205;29;20099;-82
2021/03/04 08:46:01;;;;;;;27.02;10.80;;;;;;;12.87;45.38;98440.00;4928176;29;20035;-84
2021/03/04 08:48:27;;;;;;;24.27;12.05;;;;;;;13.47;44.42;98438.16;4922895;29;20028;-84
2021/03/04 08:50:57;;;;;;;19.48;12.25;;;;;;;13.16;44.53;98428.81;4925115;29;20024;-86
2021/03/04 08:53:27;;;;;;;21.52;12.18;;;;;;;12.62;45.92;98434.88;4924813;29;20028;-90
2021/03/04 08:55:55;;;;;;;18.48;10.65;;;;;;;13.04;45.20;98444.91;4922106;29;20096;-86
2021/03/04 08:58:23;;;;;;;20.35;12.80;;;;;;;14.09;42.65;98431.22;4922884;29;20103;-83
2021/03/04 09:01:01;;;;;;;20.85;12.07;;;;;;;14.22;42.10;98432.34;4917620;29;20032;-86
2021/03/04 09:03:28;;;;;;;23.15;11.80;;;;;;;13.88;42.89;98417.03;4921661;29;20032;-88
2021/03/04 09:06:07;;;;;;;24.35;12.18;;;;;;;13.90;43.33;98431.31;4924300;29;20032;-83
2021/03/04 09:08:44;;;;;;;21.02;11.77;;;;;;;15.00;41.43;98427.25;4924713;29;20030;-82
2021/03/04 09:11:36;;;;;;;29.60;13.85;;;;;;;15.00;40.55;98416.22;4918245;29;20115;-84
2021/03/04 09:14:01;;;;;;;17.40;10.75;;;;;;;14.72;41.70;98414.72;4914430;29;20468;-83
2021/03/04 09:16:27;;;;;;;23.23;12.07;;;;;;;14.35;42.04;98412.25;4917255;29;20116;-86
2021/03/04 09:18:52;;;;;;;17.70;11.25;;;;;;;14.61;41.91;98410.56;4908636;29;20032;-79
2021/03/04 09:21:18;;;;;;;23.38;13.68;;;;;;;14.88;41.70;98395.88;4924341;29;20088;-86
2021/03/04 09:23:44;;;;;;;22.73;12.95;;;;;;;15.57;39.58;98399.94;4922969;29;20047;-90
2021/03/04 09:26:10;;;;;;;23.85;14.75;;;;;;;15.30;40.19;98386.28;4914198;29;20036;-85
2021/03/04 09:28:38;;;;;;;21.58;13.85;;;;;;;15.69;39.69;98394.66;4921945;29;20032;-85
2021/03/04 09:31:14;;;;;;;21.70;13.57;;;;;;;15.88;38.68;98378.66;4912390;29;20032;-82
2021/03/04 09:33:41;;;;;;;26.17;16.63;;;;;;;16.88;37.94;98382.28;4915929;29;20095;-80
2021/03/04 09:36:07;;;;;;;29.55;18.35;;;;;;;17.25;35.81;98374.41;4915353;29;20028;-81
2021/03/04 09:38:35;;;;;;;23.98;15.27;;;;;;;19.69;32.32;98379.34;4915902;29;20035;-82
2021/03/04 09:41:27;;;;;;;39.30;17.10;;;;;;;19.21;32.13;98374.44;4898769;29;20035;-81
2021/03/04 09:44:00;;;;;;;29.42;17.20;;;;;;;18.14;33.18;98363.16;4911735;29;20040;-81
2021/03/04 09:46:29;;;;;;;26.25;16.42;;;;;;;19.53;32.21;98364.50;4917670;29;20028;-82
2021/03/04 09:49:12;;;;;;;31.58;17.85;;;;;;;19.40;31.08;98371.16;4918653;29;20035;-82
2021/03/04 09:51:42;;;;;;;25.05;16.63;;;;;;;19.56;30.88;98370.19;4920444;29;20060;-88
2021/03/04 09:54:09;;;;;;;29.63;17.10;;;;;;;18.92;30.80;98355.16;4919866;29;20032;-83
2021/03/04 09:56:34;;;;;;;23.30;13.75;;;;;;;18.32;30.16;98352.81;4918847;29;20048;-83
2021/03/04 09:59:00;;;;;;;19.92;12.32;;;;;;;18.36;29.67;98346.25;4919588;29;20147;-85
2021/03/04 10:01:30;;;;;;;20.60;12.73;;;;;;;18.75;28.63;98356.09;4919584;29;20039;-80
2021/03/04 10:04:06;;;;;;;20.75;13.52;;;;;;;18.61;28.92;98345.28;4906363;29;20016;-83
2021/03/04 10:06:36;;;;;;;23.02;13.35;;;;;;;18.67;28.57;98343.13;4898662;29;20512;-77
2021/03/04 10:09:04;;;;;;;24.52;13.30;;;;;;;17.64;29.27;98332.66;4900332;29;20037;-84
2021/03/04 10:11:31;;;;;;;22.88;12.98;;;;;;;18.01;29.87;98331.81;4906584;29;20092;-86
2021/03/04 10:14:10;;;;;;;19.77;12.20;;;;;;;17.80;29.98;98333.72;4904200;29;20025;-86
2021/03/04 10:16:37;;;;;;;28.50;15.38;;;;;;;17.58;30.18;98336.75;4903277;29;20069;-87
2021/03/04 10:19:05;;;;;;;27.15;15.25;;;;;;;17.69;30.81;98329.72;4900015;29;20091;-81
2021/03/04 10:21:31;;;;;;;26.75;15.13;;;;;;;18.56;29.63;98319.75;4884037;29;20028;-82
2021/03/04 10:23:56;;;;;;;27.92;17.02;;;;;;;18.38;29.57;98329.31;4901123;29;20083;-87
2021/03/04 10:26:21;;;;;;;28.27;16.58;;;;;;;18.53;28.97;98325.97;4907600;29;20024;-85
2021/03/04 10:28:47;;;;;;;25.05;14.73;;;;;;;18.10;29.29;98323.47;4918185;29;20036;-81
2021/03/04 10:31:14;;;;;;;30.00;15.82;;;;;;;18.15;29.22;98326.84;4919781;29;20477;-87
2021/03/04 10:33:40;;;;;;;30.13;15.35;;;;;;;18.18;29.36;98323.41;4919293;29;20366;-81
2021/03/04 10:36:05;;;;;;;28.67;16.40;;;;;;;18.30;29.52;98319.09;4902753;29;20032;-86
2021/03/04 10:38:31;;;;;;;23.23;14.30;;;;;;;19.16;28.07;98306.13;4901319;29;20488;-83
2021/03/04 10:40:56;;;;;;;22.45;13.88;;;;;;;19.40;27.11;98316.50;4917247;29;20035;-82
2021/03/04 10:43:22;;;;;;;27.40;14.70;;;;;;;19.05;27.58;98321.56;4933121;29;20028;-79
2021/03/04 10:45:47;;;;;;;30.25;13.18;;;;;;;18.13;28.41;98311.72;4922782;29;20040;-80
2021/03/04 10:48:13;;;;;;;22.05;13.57;;;;;;;18.46;27.92;98315.38;4923543;29;20404;-84
2021/03/04 10:50:41;;;;;;;22.75;13.70;;;;;;;18.27;28.06;98315.03;4923634;29;20039;-86
2021/03/04 10:53:06;;;;;;;19.63;12.48;;;;;;;19.00;27.25;98318.22;4907455;29;20043;-92
2021/03/04 10:55:32;;;;;;;22.17;13.57;;;;;;;18.38;27.75;98301.59;4927798;29;20032;-85
2021/03/04 10:57:57;;;;;;;20.92;14.35;;;;;;;17.97;28.25;98292.13;4928175;29;20032;-84
2021/03/04 11:00:23;;;;;;;24.00;13.75;;;;;;;18.54;27.24;98308.97;4922285;29;20025;-81
2021/03/04 11:02:49;;;;;;;21.55;12.93;;;;;;;18.29;28.07;98304.44;4921390;29;20028;-84
2021/03/04 11:05:15;;;;;;;20.67;12.60;;;;;;;18.31;27.96;98295.78;4920331;29;20096;-92
2021/03/04 11:07:40;;;;;;;26.67;13.65;;;;;;;18.44;27.98;98287.22;4922980;29;20511;-89
2021/03/04 11:10:09;;;;;;;24.13;12.88;;;;;;;18.11;27.45;98298.19;4926737;29;20036;-89
2021/03/04 11:12:36;;;;;;;19.73;11.57;;;;;;;18.63;27.32;98284.00;4934430;29;20047;-86
2021/03/04 11:15:03;;;;;;;33.63;12.82;;;;;;;17.96;27.83;98284.94;4937682;29;20080;-85
2021/03/04 11:17:28;;;;;;;24.75;13.65;;;;;;;17.13;28.68;98273.59;4945452;29;20032;-88
2021/03/04 11:19:54;;;;;;;27.98;13.38;;;;;;;17.59;28.25;98274.75;4904975;29;20039;-86
2021/03/04 11:22:19;;;;;;;22.70;11.90;;;;;;;17.41;28.34;98264.88;4922956;29;20028;-84
2021/03/04 11:24:48;;;;;;;20.70;13.52;;;;;;;18.27;27.61;98270.72;4905058;29;20029;-84
2021/03/04 11:27:17;;;;;;;20.38;12.85;;;;;;;17.51;28.37;98259.78;4910598;29;20036;-85
2021/03/04 11:29:47;;;;;;;22.65;14.38;;;;;;;16.73;29.21;98263.94;4934760;29;20038;-86
2021/03/04 11:32:16;;;;;;;25.55;13.65;;;;;;;16.21;29.68;98252.09;4943722;29;20035;-87